This is the latest recevied weather packets stored in our database for station/object IZ1CYF-13. If no packets are shown the sender has not sent any weather packets the latest 10 day(s).
| Time | Temp. | Humidity | Pressure | Rain* | Wind** | Luminosity | Snow |
|---|---|---|---|---|---|---|---|
| 1777547343 | 14.44° C | 62% | 1027.3 hPa | - | - | - | - |
| 1777546143 | 18.89° C | 49% | 1026 hPa | - | - | - | - |
| 1777534758 | 16.11° C | 62% | 1025.3 hPa | - | - | - | - |
| 1777532943 | 15° C | 66% | 1025.5 hPa | - | - | - | - |
| 1777523348 | 18.89° C | 55% | 1022.8 hPa | - | - | - | - |
| 1777522759 | 20° C | 51% | 1022.4 hPa | - | - | - | - |
| 1777513748 | 18.33° C | 62% | 1021.1 hPa | - | - | - | - |
| 1777504744 | 20.56° C | 49% | 1019.3 hPa | - | - | - | - |
| 1777503544 | 21.67° C | 46% | 1018.9 hPa | - | - | - | - |
| 1777502359 | 20° C | 51% | 1019.2 hPa | - | - | - | - |
| 1777501744 | 18.89° C | 53% | 1019.3 hPa | - | - | - | - |
| 1777498748 | 21.11° C | 47% | 1018.5 hPa | - | - | - | - |
| 1777498148 | 23.33° C | 42% | 1018 hPa | - | - | - | - |
| 1777492145 | 23.89° C | 40% | 1016.9 hPa | - | - | - | - |
| 1777490345 | 25° C | 38% | 1016.4 hPa | - | - | - | - |
| 1777489145 | 25° C | 38% | 1016 hPa | - | - | - | - |
| 1777487362 | 22.78° C | 42% | 1016.4 hPa | - | - | - | - |
| 1777486749 | 21.67° C | 43% | 1016.5 hPa | - | - | - | - |
| 1777476546 | 21.67° C | 40% | 1016.4 hPa | - | - | - | - |
| 1777475945 | 21.67° C | 42% | 1016.5 hPa | - | - | - | - |
| 1777475345 | 23.33° C | 39% | 1016.1 hPa | - | - | - | - |
| 1777473545 | 23.33° C | 39% | 1016.2 hPa | - | - | - | - |
| 1777466346 | 22.78° C | 41% | 1017.4 hPa | - | - | - | - |
| 1777465162 | 22.78° C | 41% | 1017.6 hPa | - | - | - | - |
| 1777464545 | 22.78° C | 40% | 1017.6 hPa | - | - | - | - |
* Rain since midnight (hover to see other rain measurements)
** Current wind speed in m/s (hover to see current wind gust speed)